WetterOnline ( https://www.wetteronline.de )

Wetter aktuell Teltow

Aktuelles Wetter: Berlin-Dahlem (70m)

6-stündlich | Neueste Meldungen
Ortszeit Temperatur Wetter
So, 21.04. 8:00 8.7° C wolkenlos
So, 21.04. 2:00 10.0° C wolkenlos
Sa, 20.04. 20:00 17.0° C fast wolkenlos
Sa, 20.04. 14:00 19.8° C leicht bewölkt
Sa, 20.04. 8:00 7.5° C fast wolkenlos
Sa, 20.04. 2:00 8.3° C wolkenlos
Fr, 19.04. 20:00 18.1° C wolkenlos
Fr, 19.04. 14:00 21.7° C wolkenlos
Ortszeit Temperatur Wetter
So, 21.04. 13:00 19.5° C wolkenlos
So, 21.04. 12:00 19.1° C fast wolkenlos
So, 21.04. 11:00 17.0° C fast wolkenlos
So, 21.04. 10:00 14.4° C fast wolkenlos
So, 21.04. 9:00 11.3° C wolkenlos
So, 21.04. 8:00 8.7° C wolkenlos
Ortszeit Relative Feuchte Sichtweite
So, 21.04. 8:00 65% 50 km
So, 21.04. 2:00 50% 45 km
Sa, 20.04. 20:00 34% 50 km
Sa, 20.04. 14:00 38% 50 km
Sa, 20.04. 8:00 77% 45 km
Sa, 20.04. 2:00 49% 50 km
Fr, 19.04. 20:00 32% 35 km
Fr, 19.04. 14:00 30% 40 km
Ortszeit Relative Feuchte Sichtweite
So, 21.04. 13:00 38% 50 km
So, 21.04. 12:00 42% 45 km
So, 21.04. 11:00 46% 45 km
So, 21.04. 10:00 52% 50 km
So, 21.04. 9:00 57% 50 km
So, 21.04. 8:00 65% 50 km
Ortszeit Niederschlagsmenge Niederschlagsart
So, 21.04. 8:00 0.0 l/m2 in 12 Std. -
So, 21.04. 2:00 0.0 l/m2 in 6 Std. -
Sa, 20.04. 20:00 0.0 l/m2 in 12 Std. -
Sa, 20.04. 14:00 0.0 l/m2 in 6 Std. -
Sa, 20.04. 8:00 0.0 l/m2 in 12 Std. -
Sa, 20.04. 2:00 0.0 l/m2 in 6 Std. -
Fr, 19.04. 20:00 0.0 l/m2 in 12 Std. -
Fr, 19.04. 14:00 0.0 l/m2 in 6 Std. -
Ortszeit Niederschlagsmenge Niederschlagsart
So, 21.04. 13:00 keine Meldung -
So, 21.04. 12:00 keine Meldung -
So, 21.04. 11:00 keine Meldung -
So, 21.04. 10:00 keine Meldung -
So, 21.04. 9:00 keine Meldung -
So, 21.04. 8:00 keine Meldung -
Ortszeit Stärke Spitze Richtung
km/h Bft. km/h Grad Sektor
So, 21.04. 8:00 11 2 - 100° O
So, 21.04. 2:00 14 3 - 70° O
Sa, 20.04. 20:00 18 3 - 60° NO
Sa, 20.04. 14:00 11 2 - 50° NO
Sa, 20.04. 8:00 7 2 - 50° NO
Sa, 20.04. 2:00 11 2 - 60° NO
Fr, 19.04. 20:00 18 3 - 60° NO
Fr, 19.04. 14:00 11 2 - 120° SO
Ortszeit Stärke Spitze Richtung
km/h Bft. km/h Grad Sektor
So, 21.04. 13:00 7 2 - 80° O
So, 21.04. 12:00 7 2 - 80° O
So, 21.04. 11:00 11 2 - 110° O
So, 21.04. 10:00 7 2 - 120° SO
So, 21.04. 9:00 7 2 - 100° O
So, 21.04. 8:00 11 2 - 100° O
Ortszeit Untergrenze Bedeckung Gattung
total tief tief mittel hoch
So, 21.04. 8:00 - 0/8 0/8 - - -
So, 21.04. 2:00 - 0/8 0/8 - - -
Sa, 20.04. 20:00 3900 m 2/8 1/8 - Ac Ci
Sa, 20.04. 14:00 7500 m 6/8 0/8 - - Ci
Sa, 20.04. 8:00 9000 m 1/8 0/8 - - Ci
Sa, 20.04. 2:00 - 0/8 0/8 - - -
Fr, 19.04. 20:00 - 0/8 0/8 - - -
Fr, 19.04. 14:00 - 0/8 0/8 - - -
Ortszeit Bedeckungsgrad in Achtel und Wolkenuntergrenze
So, 21.04. 13:00 keine Wolken
So, 21.04. 12:00 1(9000m)
So, 21.04. 11:00 1(9000m)
So, 21.04. 10:00 1(9000m)
So, 21.04. 9:00 1(9000m)
So, 21.04. 8:00 keine Wolken
Ortszeit Luftdruck NN (hPa) Tendenz (hPa in 3 Std.)
So, 21.04. 8:00 1026 - 0,6
So, 21.04. 2:00 1027 - 0,9
Sa, 20.04. 20:00 1028 - 0,6
Sa, 20.04. 14:00 1030 - 1,1
Sa, 20.04. 8:00 1032 + 0,1
Sa, 20.04. 2:00 1033 + 0,1
Fr, 19.04. 20:00 1031 - 0,3
Fr, 19.04. 14:00 1033 - 1,0
Ortszeit Luftdruck NN (hPa) Tendenz (hPa in 3 Std.)
So, 21.04. 13:00 1024 - 1,8
So, 21.04. 12:00 1025 - 1,2
So, 21.04. 11:00 1025 - 0,5
So, 21.04. 10:00 1026 - 0,2
So, 21.04. 9:00 1026 - 0,2
So, 21.04. 8:00 1026 - 0,6
Ortszeit Schneehöhe (cm)
So, 21.04. 8:00 0
So, 21.04. 2:00 0
Sa, 20.04. 20:00 0
Sa, 20.04. 14:00 0
Sa, 20.04. 8:00 0
Sa, 20.04. 2:00 0
Fr, 19.04. 20:00 0
Fr, 19.04. 14:00 0
Ortszeit Schneehöhe (cm)
So, 21.04. 13:00 -
So, 21.04. 12:00 -
So, 21.04. 11:00 -
So, 21.04. 10:00 -
So, 21.04. 9:00 -
So, 21.04. 8:00 0
Link zu dieser Seite / Seite empfehlen

Das Wetter in ...